createdAt,value
2022-11-05T00:00:21.192Z,61.50
2022-11-05T00:02:47.995Z,61.40
2022-11-05T00:05:14.581Z,61.50
2022-11-05T00:07:41.161Z,61.40
2022-11-05T00:10:07.974Z,61.50
2022-11-05T00:12:34.606Z,61.50
2022-11-05T00:15:01.227Z,61.50
2022-11-05T00:17:27.847Z,61.50
2022-11-05T00:19:54.462Z,61.50
2022-11-05T00:22:21.080Z,61.50
2022-11-05T00:24:47.930Z,61.40
2022-11-05T00:27:14.548Z,62.50
2022-11-05T00:29:41.384Z,61.50
2022-11-05T00:32:08.225Z,61.50
2022-11-05T00:34:35.042Z,61.50
2022-11-05T00:37:01.870Z,61.40
2022-11-05T00:39:28.740Z,61.50
2022-11-05T00:41:55.552Z,61.50
2022-11-05T00:44:22.152Z,61.60
2022-11-05T00:46:48.967Z,61.40
2022-11-05T00:49:15.581Z,61.50
2022-11-05T00:51:42.414Z,61.50
2022-11-05T00:54:09.016Z,61.50
2022-11-05T00:56:35.621Z,61.50
2022-11-05T00:59:02.444Z,61.50
2022-11-05T01:01:29.151Z,61.60
2022-11-05T01:03:56.065Z,61.50
2022-11-05T01:06:22.670Z,61.50
2022-11-05T01:08:49.270Z,61.50
2022-11-05T01:11:15.910Z,61.50
2022-11-05T01:13:42.739Z,61.50
2022-11-05T01:16:09.340Z,61.50
2022-11-05T01:18:35.937Z,61.50
2022-11-05T01:21:02.585Z,61.60
2022-11-05T01:23:29.191Z,61.50
2022-11-05T01:25:55.788Z,61.60
2022-11-05T01:28:22.653Z,61.60
2022-11-05T01:30:49.314Z,61.60
2022-11-05T01:33:15.937Z,61.60
2022-11-05T01:35:42.538Z,61.50
2022-11-05T01:38:09.116Z,61.50
2022-11-05T01:40:35.729Z,61.60
2022-11-05T01:43:02.557Z,61.60
2022-11-05T01:45:29.207Z,61.60
2022-11-05T01:47:56.030Z,61.60
2022-11-05T01:50:22.642Z,61.60
2022-11-05T01:52:49.464Z,61.60
2022-11-05T01:55:16.087Z,61.60
2022-11-05T01:57:42.697Z,61.50
2022-11-05T02:00:09.315Z,61.60
2022-11-05T02:02:35.987Z,61.60
2022-11-05T02:05:02.703Z,61.60
2022-11-05T02:07:29.513Z,61.50
2022-11-05T02:09:56.350Z,61.60
2022-11-05T02:12:22.965Z,61.60
2022-11-05T02:14:49.558Z,61.60
2022-11-05T02:17:16.151Z,61.60
2022-11-05T02:19:42.955Z,61.60
2022-11-05T02:22:09.551Z,61.80
2022-11-05T02:24:36.163Z,61.60
2022-11-05T02:27:02.755Z,61.60
2022-11-05T02:29:29.363Z,61.60
2022-11-05T02:31:56.170Z,61.60
2022-11-05T02:34:22.760Z,61.60
2022-11-05T02:36:49.345Z,61.50
2022-11-05T02:39:15.964Z,62.10
2022-11-05T02:41:42.582Z,61.60
2022-11-05T02:44:09.830Z,61.60
2022-11-05T02:46:36.657Z,61.60
2022-11-05T02:49:03.507Z,61.60
2022-11-05T02:51:30.146Z,61.60
2022-11-05T02:53:56.976Z,61.50
2022-11-05T02:56:23.588Z,61.50
2022-11-05T02:58:50.189Z,61.50
2022-11-05T03:01:16.939Z,61.50
2022-11-05T03:03:43.670Z,61.60
2022-11-05T03:06:10.299Z,61.50
2022-11-05T03:08:36.924Z,61.50
2022-11-05T03:11:03.534Z,61.60
2022-11-05T03:13:30.145Z,61.50
2022-11-05T03:15:56.957Z,61.50
2022-11-05T03:18:23.575Z,61.50
2022-11-05T03:20:50.418Z,61.50
2022-11-05T03:23:17.035Z,61.50
2022-11-05T03:25:43.680Z,61.50
2022-11-05T03:28:10.296Z,61.50
2022-11-05T03:30:36.920Z,61.50
2022-11-05T03:33:03.535Z,61.60
2022-11-05T03:35:30.155Z,61.60
2022-11-05T03:37:56.756Z,61.50
2022-11-05T03:40:23.366Z,61.60
2022-11-05T03:42:49.992Z,61.60
2022-11-05T03:45:16.604Z,61.60
2022-11-05T03:47:43.210Z,61.60
2022-11-05T03:50:09.818Z,61.50
2022-11-05T03:52:36.464Z,61.50
2022-11-05T03:55:03.100Z,61.50
2022-11-05T03:57:29.719Z,61.50
2022-11-05T03:59:56.356Z,61.50
2022-11-05T04:02:23.295Z,61.50
2022-11-05T04:04:50.049Z,61.50
2022-11-05T04:07:16.677Z,61.50
2022-11-05T04:09:43.493Z,61.50
2022-11-05T04:12:10.117Z,61.50
2022-11-05T04:14:36.959Z,61.50
2022-11-05T04:17:03.576Z,61.50
2022-11-05T04:19:30.199Z,61.50
2022-11-05T04:21:57.013Z,61.50
2022-11-05T04:24:23.628Z,61.50
2022-11-05T04:26:50.273Z,61.50
2022-11-05T04:29:16.896Z,61.60
2022-11-05T04:31:43.736Z,61.60
2022-11-05T04:34:10.342Z,61.60
2022-11-05T04:36:36.969Z,61.60
2022-11-05T04:39:03.807Z,61.50
2022-11-05T04:41:30.410Z,61.50
2022-11-05T04:43:57.243Z,61.50
2022-11-05T04:46:24.072Z,61.60
2022-11-05T04:48:50.709Z,61.60
2022-11-05T04:51:17.342Z,62.00
2022-11-05T04:53:44.161Z,61.50
2022-11-05T04:56:10.780Z,61.60
2022-11-05T04:58:37.390Z,61.50
2022-11-05T05:01:04.093Z,61.50
2022-11-05T05:03:30.758Z,61.60
2022-11-05T05:06:03.403Z,61.50
2022-11-05T05:08:30.482Z,61.60
2022-11-05T05:10:57.324Z,61.50
2022-11-05T05:13:23.949Z,61.50
2022-11-05T05:15:50.779Z,61.50
2022-11-05T05:18:17.647Z,61.50
2022-11-05T05:20:44.252Z,61.50
2022-11-05T05:23:11.363Z,61.50
2022-11-05T05:25:38.217Z,61.40
2022-11-05T05:28:05.040Z,61.30
2022-11-05T05:30:31.682Z,61.30
2022-11-05T05:32:58.530Z,62.30
2022-11-05T05:35:25.132Z,61.30
2022-11-05T05:37:51.943Z,61.30
2022-11-05T05:40:18.585Z,61.40
2022-11-05T05:42:45.204Z,61.30
2022-11-05T05:45:11.857Z,61.30
2022-11-05T05:47:38.497Z,61.40
2022-11-05T05:50:05.107Z,61.40
2022-11-05T05:52:31.709Z,61.30
2022-11-05T05:54:58.518Z,61.40
2022-11-05T05:57:25.145Z,61.50
2022-11-05T05:59:51.774Z,61.50
2022-11-05T06:02:18.514Z,61.50
2022-11-05T06:04:45.730Z,61.50
2022-11-05T06:07:12.343Z,61.50
2022-11-05T06:09:38.969Z,61.60
2022-11-05T06:12:05.577Z,61.50
2022-11-05T06:14:32.210Z,61.50
2022-11-05T06:16:58.812Z,61.50
2022-11-05T06:19:26.533Z,61.50
2022-11-05T06:21:53.152Z,61.60
2022-11-05T06:24:19.771Z,61.60
2022-11-05T06:26:46.532Z,61.50
2022-11-05T06:29:13.140Z,61.50
2022-11-05T06:31:40.373Z,61.50
2022-11-05T06:34:07.001Z,61.50
2022-11-05T06:36:33.837Z,61.50
2022-11-05T06:39:00.474Z,61.50
2022-11-05T06:41:27.296Z,61.50
2022-11-05T06:43:53.919Z,61.50
2022-11-05T06:46:20.759Z,61.50
2022-11-05T06:48:47.392Z,61.50
2022-11-05T06:51:14.211Z,61.50
2022-11-05T06:53:40.821Z,61.50
2022-11-05T06:56:07.638Z,61.40
2022-11-05T06:58:34.284Z,61.40
2022-11-05T07:01:01.209Z,61.40
2022-11-05T07:03:27.904Z,61.40
2022-11-05T07:05:54.527Z,61.40
2022-11-05T07:08:21.151Z,61.50
2022-11-05T07:10:47.762Z,61.50
2022-11-05T07:13:14.695Z,61.50
2022-11-05T07:15:41.533Z,61.50
2022-11-05T07:18:08.142Z,61.40
2022-11-05T07:20:35.002Z,61.50
2022-11-05T07:23:01.858Z,61.50
2022-11-05T07:25:28.461Z,61.50
2022-11-05T07:27:55.083Z,61.50
2022-11-05T07:30:21.697Z,61.50
2022-11-05T07:32:48.300Z,61.50
2022-11-05T07:35:14.919Z,61.50
2022-11-05T07:37:41.759Z,61.50
2022-11-05T07:40:08.363Z,61.50
2022-11-05T07:42:34.970Z,61.40
2022-11-05T07:45:01.838Z,61.40
2022-11-05T07:47:28.468Z,61.40
2022-11-05T07:49:55.310Z,61.40
2022-11-05T07:52:22.145Z,61.40
2022-11-05T07:54:48.740Z,61.40
2022-11-05T07:57:15.361Z,61.40
2022-11-05T07:59:41.977Z,61.40
2022-11-05T08:02:08.829Z,61.30
2022-11-05T08:04:35.769Z,61.30
2022-11-05T08:07:02.632Z,61.30
2022-11-05T08:09:29.227Z,61.40
2022-11-05T08:11:59.914Z,61.40
2022-11-05T08:14:29.397Z,61.30
2022-11-05T08:16:56.243Z,61.40
2022-11-05T08:19:22.854Z,61.30
2022-11-05T08:21:49.481Z,61.40
2022-11-05T08:24:16.102Z,61.30
2022-11-05T08:26:42.747Z,61.30
2022-11-05T08:29:09.364Z,61.30
2022-11-05T08:31:36.196Z,61.30
2022-11-05T08:34:02.998Z,61.30
2022-11-05T08:36:29.642Z,61.30
2022-11-05T08:38:56.249Z,61.20
2022-11-05T08:41:22.861Z,61.20
2022-11-05T08:43:49.702Z,61.30
2022-11-05T08:46:16.348Z,61.30
2022-11-05T08:48:42.952Z,61.30
2022-11-05T08:51:09.589Z,61.30
2022-11-05T08:53:36.196Z,61.30
2022-11-05T08:56:03.013Z,61.20
2022-11-05T08:58:29.613Z,61.10
2022-11-05T09:01:01.830Z,61.10
2022-11-05T09:03:31.253Z,61.20
2022-11-05T09:05:57.856Z,61.10
2022-11-05T09:08:24.690Z,61.10
2022-11-05T09:10:51.294Z,61.10
2022-11-05T09:13:19.901Z,61.10
2022-11-05T09:15:46.822Z,61.10
2022-11-05T09:18:13.646Z,61.10
2022-11-05T09:20:40.498Z,61.00
2022-11-05T09:23:07.456Z,60.90
2022-11-05T09:25:34.187Z,61.00
2022-11-05T09:28:00.822Z,61.00
2022-11-05T09:30:27.462Z,61.00
2022-11-05T09:32:54.093Z,61.00
2022-11-05T09:35:20.702Z,61.00
2022-11-05T09:37:47.541Z,61.00
2022-11-05T09:40:14.368Z,61.00
2022-11-05T09:42:40.989Z,60.90
2022-11-05T09:45:07.819Z,60.90
2022-11-05T09:47:34.430Z,61.00
2022-11-05T09:50:01.073Z,60.90
2022-11-05T09:52:27.716Z,61.00
2022-11-05T09:54:54.342Z,61.00
2022-11-05T09:57:20.956Z,60.90
2022-11-05T09:59:47.643Z,61.00
2022-11-05T10:02:14.348Z,61.00
2022-11-05T10:04:41.049Z,61.40
2022-11-05T10:07:07.664Z,61.10
2022-11-05T10:09:34.289Z,61.10
2022-11-05T10:14:20.079Z,61.10
2022-11-05T10:16:46.712Z,62.80
2022-11-05T10:19:13.366Z,64.50
2022-11-05T10:24:26.863Z,63.40
2022-11-05T10:26:53.730Z,63.00
2022-11-05T10:29:20.345Z,62.80
2022-11-05T10:31:46.944Z,62.80
2022-11-05T10:34:13.567Z,62.60
2022-11-05T10:36:40.173Z,62.90
2022-11-05T10:39:06.794Z,63.00
2022-11-05T10:41:33.401Z,62.70
2022-11-05T10:44:00.223Z,62.60
2022-11-05T10:46:26.865Z,62.30
2022-11-05T10:48:53.496Z,62.70
2022-11-05T10:51:20.110Z,62.80
2022-11-05T10:53:46.717Z,62.90
2022-11-05T10:56:14.423Z,62.40
2022-11-05T10:58:41.028Z,62.50
2022-11-05T11:01:07.672Z,62.80
2022-11-05T11:03:34.600Z,62.70
2022-11-05T11:06:01.210Z,62.80
2022-11-05T11:08:27.842Z,62.50
2022-11-05T11:10:54.482Z,62.50
2022-11-05T11:13:21.325Z,62.80
2022-11-05T11:15:47.949Z,63.00
2022-11-05T11:18:14.557Z,63.30
2022-11-05T11:20:41.183Z,63.40
2022-11-05T11:23:08.020Z,63.70
2022-11-05T11:25:34.625Z,62.80
2022-11-05T11:28:01.471Z,63.20
2022-11-05T11:30:28.077Z,63.40
2022-11-05T11:32:54.720Z,63.50
2022-11-05T11:35:21.640Z,64.00
2022-11-05T11:37:48.277Z,63.50
2022-11-05T11:40:15.133Z,63.30
2022-11-05T11:42:41.776Z,63.40
2022-11-05T11:45:08.427Z,62.60
2022-11-05T11:47:35.045Z,64.10
2022-11-05T11:50:01.692Z,63.50
2022-11-05T11:52:28.321Z,62.30
2022-11-05T11:54:54.945Z,62.40
2022-11-05T11:57:21.776Z,62.70
2022-11-05T12:00:07.802Z,62.70
2022-11-05T12:02:35.305Z,61.90
2022-11-05T12:05:02.066Z,62.00
2022-11-05T12:07:28.924Z,62.00
2022-11-05T12:09:55.546Z,62.10
2022-11-05T12:12:22.174Z,62.60
2022-11-05T12:14:48.796Z,62.70
2022-11-05T12:17:15.427Z,62.20
2022-11-05T12:19:42.304Z,62.00
2022-11-05T12:22:08.931Z,62.50
2022-11-05T12:24:35.544Z,62.30
2022-11-05T12:27:02.180Z,62.60
2022-11-05T12:29:34.441Z,62.60
2022-11-05T12:32:02.495Z,62.70
2022-11-05T12:34:29.344Z,62.90
2022-11-05T12:36:55.953Z,63.00
2022-11-05T12:39:22.566Z,62.80
2022-11-05T12:41:49.197Z,62.50
2022-11-05T12:44:15.836Z,62.30
2022-11-05T12:46:42.483Z,62.30
2022-11-05T12:49:09.116Z,61.60
2022-11-05T12:51:35.960Z,61.20
2022-11-05T12:54:02.773Z,61.40
2022-11-05T12:56:29.405Z,61.00
2022-11-05T12:58:56.026Z,61.00
2022-11-05T13:01:22.730Z,60.40
2022-11-05T13:03:49.428Z,60.90
2022-11-05T13:06:16.041Z,60.50
2022-11-05T13:08:42.667Z,60.10
2022-11-05T13:11:09.322Z,59.80
2022-11-05T13:13:35.937Z,59.80
2022-11-05T13:16:02.724Z,60.00
2022-11-05T13:18:29.708Z,59.40
2022-11-05T13:20:56.339Z,59.50
2022-11-05T13:23:22.969Z,59.80
2022-11-05T13:25:49.821Z,60.20
2022-11-05T13:28:16.660Z,60.00
2022-11-05T13:30:43.275Z,60.00
2022-11-05T13:33:10.250Z,60.10
2022-11-05T13:35:37.165Z,60.10
2022-11-05T13:38:03.801Z,60.20
2022-11-05T13:40:30.419Z,61.20
2022-11-05T13:42:57.046Z,60.00
2022-11-05T13:45:23.907Z,60.10
2022-11-05T13:47:50.749Z,59.60
2022-11-05T13:50:17.377Z,59.20
2022-11-05T13:52:44.018Z,58.80
2022-11-05T13:55:10.663Z,59.80
2022-11-05T13:57:37.283Z,60.20
2022-11-05T14:00:04.198Z,58.50
2022-11-05T14:02:31.076Z,55.90
2022-11-05T14:05:00.941Z,54.60
2022-11-05T14:07:28.088Z,55.70
2022-11-05T14:09:54.690Z,56.20
2022-11-05T14:12:21.294Z,56.80
2022-11-05T14:14:47.912Z,57.40
2022-11-05T14:17:14.540Z,57.60
2022-11-05T14:19:41.149Z,57.60
2022-11-05T14:22:07.996Z,57.60
2022-11-05T14:24:34.606Z,57.70
2022-11-05T14:27:01.244Z,58.10
2022-11-05T14:29:27.883Z,58.10
2022-11-05T14:32:08.263Z,57.80
2022-11-05T14:34:35.500Z,58.00
2022-11-05T14:37:02.127Z,58.10
2022-11-05T14:39:28.744Z,57.80
2022-11-05T14:41:55.377Z,57.90
2022-11-05T14:44:22.239Z,58.00
2022-11-05T14:46:48.865Z,58.10
2022-11-05T14:49:15.498Z,58.10
2022-11-05T14:51:42.128Z,58.20
2022-11-05T14:54:08.760Z,58.20
2022-11-05T14:56:35.635Z,58.30
2022-11-05T14:59:02.263Z,58.20
2022-11-05T15:01:29.029Z,58.30
2022-11-05T15:03:55.825Z,58.40
2022-11-05T15:06:22.516Z,58.30
2022-11-05T15:08:49.163Z,58.40
2022-11-05T15:11:15.773Z,58.40
2022-11-05T15:13:42.396Z,58.30
2022-11-05T15:16:09.014Z,58.20
2022-11-05T15:18:35.627Z,58.30
2022-11-05T15:21:02.245Z,58.00
2022-11-05T15:23:28.878Z,57.80
2022-11-05T15:25:55.494Z,58.00
2022-11-05T15:28:22.331Z,58.10
2022-11-05T15:30:48.952Z,58.30
2022-11-05T15:33:15.589Z,58.30
2022-11-05T15:35:42.204Z,58.40
2022-11-05T15:38:08.830Z,58.60
2022-11-05T15:40:35.475Z,58.50
2022-11-05T15:43:02.123Z,58.60
2022-11-05T15:45:28.738Z,58.60
2022-11-05T15:47:55.345Z,58.70
2022-11-05T15:50:21.984Z,58.70
2022-11-05T15:52:48.596Z,58.70
2022-11-05T15:55:15.438Z,58.70
2022-11-05T15:57:46.447Z,58.80
2022-11-05T16:00:16.298Z,58.80
2022-11-05T16:02:42.963Z,58.90
2022-11-05T16:05:09.621Z,59.00
2022-11-05T16:07:36.239Z,59.00
2022-11-05T16:10:06.036Z,59.00
2022-11-05T16:12:35.215Z,59.40
2022-11-05T16:15:01.837Z,59.70
2022-11-05T16:17:28.450Z,59.10
2022-11-05T16:19:55.082Z,59.20
2022-11-05T16:22:21.727Z,59.30
2022-11-05T16:24:48.486Z,58.50
2022-11-05T16:27:19.161Z,58.10
2022-11-05T16:29:46.381Z,59.00
2022-11-05T16:32:13.016Z,58.80
2022-11-05T16:34:39.646Z,59.40
2022-11-05T16:37:06.502Z,59.70
2022-11-05T16:39:33.104Z,59.70
2022-11-05T16:41:59.709Z,59.60
2022-11-05T16:44:26.347Z,56.00
2022-11-05T16:46:52.973Z,60.90
2022-11-05T16:49:19.590Z,60.30
2022-11-05T16:51:46.226Z,60.20
2022-11-05T16:54:12.854Z,60.30
2022-11-05T16:56:39.704Z,59.90
2022-11-05T16:59:06.561Z,59.70
2022-11-05T17:01:33.302Z,59.90
2022-11-05T17:04:00.033Z,60.00
2022-11-05T17:06:26.676Z,59.80
2022-11-05T17:08:53.304Z,60.20
2022-11-05T17:11:19.910Z,60.50
2022-11-05T17:13:46.560Z,60.80
2022-11-05T17:16:13.434Z,60.60
2022-11-05T17:18:40.038Z,61.90
2022-11-05T17:21:06.673Z,60.20
2022-11-05T17:23:33.318Z,60.20
2022-11-05T17:25:59.936Z,60.10
2022-11-05T17:28:27.292Z,60.40
2022-11-05T17:30:53.984Z,60.90
2022-11-05T17:33:20.973Z,60.40
2022-11-05T17:35:47.671Z,60.50
2022-11-05T17:38:14.302Z,60.50
2022-11-05T17:40:41.156Z,60.10
2022-11-05T17:43:07.783Z,60.20
2022-11-05T17:45:34.415Z,60.20
2022-11-05T17:48:01.254Z,60.50
2022-11-05T17:50:27.870Z,60.80
2022-11-05T17:52:54.711Z,60.80
2022-11-05T17:55:21.333Z,60.80
2022-11-05T17:57:47.962Z,60.80
2022-11-05T18:00:14.599Z,60.80
2022-11-05T18:02:41.285Z,60.80
2022-11-05T18:05:08.161Z,60.80
2022-11-05T18:07:34.826Z,60.70
2022-11-05T18:10:01.447Z,60.60
2022-11-05T18:12:28.063Z,60.60
2022-11-05T18:14:55.064Z,60.20
2022-11-05T18:17:21.681Z,60.20
2022-11-05T18:19:48.314Z,60.20
2022-11-05T18:22:14.933Z,60.50
2022-11-05T18:24:41.570Z,60.30
2022-11-05T18:27:08.428Z,60.50
2022-11-05T18:29:35.097Z,60.50
2022-11-05T18:32:01.949Z,60.50
2022-11-05T18:34:28.576Z,60.70
2022-11-05T18:36:56.518Z,60.60
2022-11-05T18:39:23.415Z,60.60
2022-11-05T18:41:50.293Z,60.30
2022-11-05T18:44:16.937Z,60.40
2022-11-05T18:46:57.779Z,60.30
2022-11-05T18:49:25.223Z,60.30
2022-11-05T18:51:51.838Z,60.30
2022-11-05T18:54:18.445Z,60.30
2022-11-05T18:56:45.062Z,60.10
2022-11-05T18:59:35.234Z,60.00
2022-11-05T19:01:58.601Z,60.10
2022-11-05T19:04:25.534Z,60.20
2022-11-05T19:06:52.158Z,60.10
2022-11-05T19:09:18.897Z,60.20
2022-11-05T19:11:45.555Z,60.20
2022-11-05T19:14:12.167Z,60.20
2022-11-05T19:16:39.035Z,60.10
2022-11-05T19:19:05.650Z,60.00
2022-11-05T19:21:32.252Z,59.90
2022-11-05T19:23:58.991Z,58.60
2022-11-05T19:26:28.612Z,58.60
2022-11-05T19:28:55.721Z,58.20
2022-11-05T19:31:22.359Z,58.40
2022-11-05T19:33:49.212Z,58.40
2022-11-05T19:36:15.855Z,58.00
2022-11-05T19:38:42.494Z,58.50
2022-11-05T19:41:09.106Z,59.10
2022-11-05T19:43:35.736Z,58.60
2022-11-05T19:46:02.360Z,58.80
2022-11-05T19:48:28.985Z,58.90
2022-11-05T19:50:55.609Z,59.20
2022-11-05T19:53:22.217Z,59.40
2022-11-05T19:55:49.063Z,60.00
2022-11-05T19:58:15.753Z,59.30
2022-11-05T20:00:42.393Z,59.40
2022-11-05T20:03:09.308Z,59.70
2022-11-05T20:05:35.993Z,59.60
2022-11-05T20:08:02.610Z,59.70
2022-11-05T20:10:29.247Z,59.60
2022-11-05T20:12:55.867Z,59.70
2022-11-05T20:15:22.726Z,59.60
2022-11-05T20:17:49.349Z,59.80
2022-11-05T20:20:15.981Z,59.60
2022-11-05T20:22:42.609Z,59.70
2022-11-05T20:25:09.234Z,59.80
2022-11-05T20:27:36.092Z,59.60
2022-11-05T20:30:02.739Z,59.60
2022-11-05T20:32:29.377Z,59.50
2022-11-05T20:34:56.018Z,59.80
2022-11-05T20:37:22.650Z,59.80
2022-11-05T20:39:49.488Z,59.80
2022-11-05T20:42:16.100Z,59.70
2022-11-05T20:44:42.745Z,59.70
2022-11-05T20:47:09.877Z,59.70
2022-11-05T20:49:36.506Z,59.70
2022-11-05T20:52:03.356Z,59.70
2022-11-05T20:54:29.977Z,59.70
2022-11-05T20:56:56.594Z,59.50
2022-11-05T20:59:23.507Z,59.00
2022-11-05T21:01:50.275Z,59.30
2022-11-05T21:04:17.260Z,59.40
2022-11-05T21:06:43.874Z,59.50
2022-11-05T21:09:10.477Z,59.60
2022-11-05T21:11:37.338Z,59.70
2022-11-05T21:14:03.955Z,59.60
2022-11-05T21:16:30.594Z,59.70
2022-11-05T21:18:57.429Z,59.70
2022-11-05T21:21:24.038Z,59.70
2022-11-05T21:23:50.663Z,59.00
2022-11-05T21:26:17.293Z,59.10
2022-11-05T21:28:44.134Z,59.10
2022-11-05T21:31:10.755Z,59.20
2022-11-05T21:33:37.379Z,59.30
2022-11-05T21:36:04.241Z,59.30
2022-11-05T21:38:30.846Z,59.30
2022-11-05T21:40:57.474Z,58.90
2022-11-05T21:43:24.089Z,59.20
2022-11-05T21:45:50.698Z,58.90
2022-11-05T21:48:17.571Z,58.30
2022-11-05T21:50:44.189Z,58.50
2022-11-05T21:53:10.826Z,58.50
2022-11-05T21:55:37.702Z,58.40
2022-11-05T21:58:04.319Z,58.50
2022-11-05T22:00:30.926Z,58.60
2022-11-05T22:02:57.593Z,58.90
2022-11-05T22:05:24.251Z,58.90
2022-11-05T22:07:51.123Z,58.70
2022-11-05T22:10:17.881Z,58.70
2022-11-05T22:12:44.515Z,58.60
2022-11-05T22:15:11.139Z,58.60
2022-11-05T22:17:40.396Z,58.60
2022-11-05T22:20:09.209Z,58.40
2022-11-05T22:22:36.035Z,58.50
2022-11-05T22:25:02.663Z,58.50
2022-11-05T22:27:29.269Z,58.40
2022-11-05T22:29:56.122Z,58.60
2022-11-05T22:32:22.976Z,58.40
2022-11-05T22:34:49.932Z,58.40
2022-11-05T22:37:16.540Z,58.40
2022-11-05T22:39:43.408Z,58.40
2022-11-05T22:42:10.120Z,58.40
2022-11-05T22:44:36.779Z,58.30
2022-11-05T22:47:03.606Z,58.30
2022-11-05T22:49:30.234Z,58.20
2022-11-05T22:51:57.082Z,58.20
2022-11-05T22:54:23.922Z,58.20
2022-11-05T22:56:50.766Z,58.20
2022-11-05T22:59:17.398Z,58.20
2022-11-05T23:01:44.215Z,58.10
2022-11-05T23:04:10.974Z,58.10
2022-11-05T23:06:37.817Z,58.10
2022-11-05T23:09:04.469Z,58.10
2022-11-05T23:11:31.102Z,58.20
2022-11-05T23:13:57.741Z,58.10
2022-11-05T23:16:24.581Z,58.10
2022-11-05T23:18:51.185Z,58.20
2022-11-05T23:21:21.953Z,58.10
2022-11-05T23:23:50.338Z,58.00
2022-11-05T23:26:16.998Z,58.10
2022-11-05T23:28:43.855Z,58.00
2022-11-05T23:31:10.468Z,58.10
2022-11-05T23:33:37.119Z,58.00
2022-11-05T23:36:03.738Z,58.00
2022-11-05T23:38:30.384Z,57.90
2022-11-05T23:40:56.997Z,58.10
2022-11-05T23:43:23.611Z,58.00
2022-11-05T23:45:50.238Z,58.00
2022-11-05T23:48:17.216Z,58.00
2022-11-05T23:50:44.146Z,58.00
2022-11-05T23:53:10.970Z,58.10
2022-11-05T23:55:37.611Z,58.10
2022-11-05T23:58:04.234Z,58.00
